sensor_id;sensor_type;location;lat;lon;timestamp;temperature;humidity
5494;DHT22;2769;49.864;8.656;2022-07-04T00:01:22;25.10;90.40
5494;DHT22;2769;49.864;8.656;2022-07-04T00:04:08;25.00;90.40
5494;DHT22;2769;49.864;8.656;2022-07-04T00:06:55;25.00;90.40
5494;DHT22;2769;49.864;8.656;2022-07-04T00:09:42;25.00;90.40
5494;DHT22;2769;49.864;8.656;2022-07-04T00:12:28;24.80;90.70
5494;DHT22;2769;49.864;8.656;2022-07-04T00:15:15;24.90;90.40
5494;DHT22;2769;49.864;8.656;2022-07-04T00:18:03;24.90;90.80
5494;DHT22;2769;49.864;8.656;2022-07-04T00:20:50;25.10;90.50
5494;DHT22;2769;49.864;8.656;2022-07-04T00:23:39;25.10;90.60
5494;DHT22;2769;49.864;8.656;2022-07-04T00:26:25;25.10;90.00
5494;DHT22;2769;49.864;8.656;2022-07-04T00:29:12;25.00;90.20
5494;DHT22;2769;49.864;8.656;2022-07-04T00:31:59;24.80;90.20
5494;DHT22;2769;49.864;8.656;2022-07-04T00:34:47;24.80;90.30
5494;DHT22;2769;49.864;8.656;2022-07-04T00:37:34;24.70;90.50
5494;DHT22;2769;49.864;8.656;2022-07-04T00:40:21;24.80;90.30
5494;DHT22;2769;49.864;8.656;2022-07-04T00:43:07;24.70;90.50
5494;DHT22;2769;49.864;8.656;2022-07-04T00:45:54;24.60;90.40
5494;DHT22;2769;49.864;8.656;2022-07-04T00:48:41;24.70;90.60
5494;DHT22;2769;49.864;8.656;2022-07-04T00:51:29;24.80;90.60
5494;DHT22;2769;49.864;8.656;2022-07-04T00:54:16;24.80;90.80
5494;DHT22;2769;49.864;8.656;2022-07-04T00:57:03;24.60;90.60
5494;DHT22;2769;49.864;8.656;2022-07-04T00:59:50;24.60;90.50
5494;DHT22;2769;49.864;8.656;2022-07-04T01:02:36;24.50;90.70
5494;DHT22;2769;49.864;8.656;2022-07-04T01:05:23;24.50;90.70
5494;DHT22;2769;49.864;8.656;2022-07-04T01:08:11;24.40;90.90
5494;DHT22;2769;49.864;8.656;2022-07-04T01:10:58;24.20;91.20
5494;DHT22;2769;49.864;8.656;2022-07-04T01:13:44;24.10;91.40
5494;DHT22;2769;49.864;8.656;2022-07-04T01:16:31;24.20;91.50
5494;DHT22;2769;49.864;8.656;2022-07-04T01:19:18;24.30;91.60
5494;DHT22;2769;49.864;8.656;2022-07-04T01:22:07;24.00;91.90
5494;DHT22;2769;49.864;8.656;2022-07-04T01:24:54;24.00;91.80
5494;DHT22;2769;49.864;8.656;2022-07-04T01:27:40;24.00;92.30
5494;DHT22;2769;49.864;8.656;2022-07-04T01:30:28;23.80;91.80
5494;DHT22;2769;49.864;8.656;2022-07-04T01:33:14;23.60;92.20
5494;DHT22;2769;49.864;8.656;2022-07-04T01:36:03;23.50;92.60
5494;DHT22;2769;49.864;8.656;2022-07-04T01:38:51;23.70;92.50
5494;DHT22;2769;49.864;8.656;2022-07-04T01:41:37;23.50;92.60
5494;DHT22;2769;49.864;8.656;2022-07-04T01:44:24;23.50;92.70
5494;DHT22;2769;49.864;8.656;2022-07-04T01:47:10;23.40;92.90
5494;DHT22;2769;49.864;8.656;2022-07-04T01:49:57;23.50;93.10
5494;DHT22;2769;49.864;8.656;2022-07-04T01:52:43;23.50;93.00
5494;DHT22;2769;49.864;8.656;2022-07-04T01:55:32;23.60;93.30
5494;DHT22;2769;49.864;8.656;2022-07-04T01:58:19;23.60;93.10
5494;DHT22;2769;49.864;8.656;2022-07-04T02:01:05;23.30;92.90
5494;DHT22;2769;49.864;8.656;2022-07-04T02:04:09;23.30;93.30
5494;DHT22;2769;49.864;8.656;2022-07-04T02:06:56;23.20;93.70
5494;DHT22;2769;49.864;8.656;2022-07-04T02:09:44;23.10;94.40
5494;DHT22;2769;49.864;8.656;2022-07-04T02:12:32;23.20;93.90
5494;DHT22;2769;49.864;8.656;2022-07-04T02:15:37;23.00;94.40
5494;DHT22;2769;49.864;8.656;2022-07-04T02:18:24;22.90;94.60
5494;DHT22;2769;49.864;8.656;2022-07-04T02:21:11;22.80;95.00
5494;DHT22;2769;49.864;8.656;2022-07-04T02:23:58;22.80;95.00
5494;DHT22;2769;49.864;8.656;2022-07-04T02:26:45;22.80;95.10
5494;DHT22;2769;49.864;8.656;2022-07-04T02:29:32;22.80;95.50
5494;DHT22;2769;49.864;8.656;2022-07-04T02:32:19;22.90;95.50
5494;DHT22;2769;49.864;8.656;2022-07-04T02:35:07;23.00;95.30
5494;DHT22;2769;49.864;8.656;2022-07-04T02:37:54;22.90;95.60
5494;DHT22;2769;49.864;8.656;2022-07-04T02:40:40;22.70;95.70
5494;DHT22;2769;49.864;8.656;2022-07-04T02:43:27;22.80;95.60
5494;DHT22;2769;49.864;8.656;2022-07-04T02:46:14;22.80;95.80
5494;DHT22;2769;49.864;8.656;2022-07-04T02:49:02;22.70;95.90
5494;DHT22;2769;49.864;8.656;2022-07-04T02:51:49;22.50;96.00
5494;DHT22;2769;49.864;8.656;2022-07-04T02:54:35;22.60;96.20
5494;DHT22;2769;49.864;8.656;2022-07-04T02:57:22;22.40;96.80
5494;DHT22;2769;49.864;8.656;2022-07-04T03:00:09;22.30;96.80
5494;DHT22;2769;49.864;8.656;2022-07-04T03:02:57;22.30;96.80
5494;DHT22;2769;49.864;8.656;2022-07-04T03:05:44;22.20;97.50
5494;DHT22;2769;49.864;8.656;2022-07-04T03:08:30;22.40;97.40
5494;DHT22;2769;49.864;8.656;2022-07-04T03:11:17;22.50;97.50
5494;DHT22;2769;49.864;8.656;2022-07-04T03:14:03;22.50;97.60
5494;DHT22;2769;49.864;8.656;2022-07-04T03:16:50;22.50;97.70
5494;DHT22;2769;49.864;8.656;2022-07-04T03:19:38;22.50;97.80
5494;DHT22;2769;49.864;8.656;2022-07-04T03:22:25;22.60;98.00
5494;DHT22;2769;49.864;8.656;2022-07-04T03:25:11;22.50;98.20
5494;DHT22;2769;49.864;8.656;2022-07-04T03:27:58;22.30;98.40
5494;DHT22;2769;49.864;8.656;2022-07-04T03:30:44;22.20;99.30
5494;DHT22;2769;49.864;8.656;2022-07-04T03:33:31;22.20;99.30
5494;DHT22;2769;49.864;8.656;2022-07-04T03:36:18;22.00;99.90
5494;DHT22;2769;49.864;8.656;2022-07-04T03:39:05;21.90;99.90
5494;DHT22;2769;49.864;8.656;2022-07-04T03:41:52;21.90;99.90
5494;DHT22;2769;49.864;8.656;2022-07-04T03:44:38;22.00;99.90
5494;DHT22;2769;49.864;8.656;2022-07-04T03:47:25;22.10;99.90
5494;DHT22;2769;49.864;8.656;2022-07-04T03:50:12;22.00;99.90
5494;DHT22;2769;49.864;8.656;2022-07-04T03:52:59;22.00;99.90
5494;DHT22;2769;49.864;8.656;2022-07-04T03:55:46;21.80;99.90
5494;DHT22;2769;49.864;8.656;2022-07-04T03:58:33;21.80;99.90
5494;DHT22;2769;49.864;8.656;2022-07-04T04:01:20;21.70;99.90
5494;DHT22;2769;49.864;8.656;2022-07-04T04:04:07;21.70;99.90
5494;DHT22;2769;49.864;8.656;2022-07-04T04:07:11;21.90;99.90
5494;DHT22;2769;49.864;8.656;2022-07-04T04:09:59;21.90;99.90
5494;DHT22;2769;49.864;8.656;2022-07-04T04:12:45;21.80;99.90
5494;DHT22;2769;49.864;8.656;2022-07-04T04:15:32;21.80;99.90
5494;DHT22;2769;49.864;8.656;2022-07-04T04:18:18;21.80;99.90
5494;DHT22;2769;49.864;8.656;2022-07-04T04:21:05;21.70;99.90
5494;DHT22;2769;49.864;8.656;2022-07-04T04:23:52;21.70;99.90
5494;DHT22;2769;49.864;8.656;2022-07-04T04:26:40;21.60;99.90
5494;DHT22;2769;49.864;8.656;2022-07-04T04:29:26;21.60;99.90
5494;DHT22;2769;49.864;8.656;2022-07-04T04:32:13;21.60;99.90
5494;DHT22;2769;49.864;8.656;2022-07-04T04:34:59;21.70;99.90
5494;DHT22;2769;49.864;8.656;2022-07-04T04:37:46;21.80;99.90
5494;DHT22;2769;49.864;8.656;2022-07-04T04:40:32;22.00;99.90
5494;DHT22;2769;49.864;8.656;2022-07-04T04:43:20;22.00;99.90
5494;DHT22;2769;49.864;8.656;2022-07-04T04:46:07;22.10;99.90
5494;DHT22;2769;49.864;8.656;2022-07-04T04:48:54;22.20;99.90
5494;DHT22;2769;49.864;8.656;2022-07-04T04:51:40;22.20;99.90
5494;DHT22;2769;49.864;8.656;2022-07-04T04:54:28;22.30;99.90
5494;DHT22;2769;49.864;8.656;2022-07-04T04:57:14;22.30;99.90
5494;DHT22;2769;49.864;8.656;2022-07-04T05:00:03;22.20;99.90
5494;DHT22;2769;49.864;8.656;2022-07-04T05:02:51;22.20;99.90
5494;DHT22;2769;49.864;8.656;2022-07-04T05:05:38;22.40;99.90
5494;DHT22;2769;49.864;8.656;2022-07-04T05:08:24;22.40;99.90
5494;DHT22;2769;49.864;8.656;2022-07-04T05:11:11;22.40;99.90
5494;DHT22;2769;49.864;8.656;2022-07-04T05:13:57;22.50;99.90
5494;DHT22;2769;49.864;8.656;2022-07-04T05:16:45;22.50;99.90
5494;DHT22;2769;49.864;8.656;2022-07-04T05:19:32;22.50;99.90
5494;DHT22;2769;49.864;8.656;2022-07-04T05:22:19;22.50;99.90
5494;DHT22;2769;49.864;8.656;2022-07-04T05:25:06;22.60;99.90
5494;DHT22;2769;49.864;8.656;2022-07-04T05:27:52;22.50;99.90
5494;DHT22;2769;49.864;8.656;2022-07-04T05:30:39;22.40;99.90
5494;DHT22;2769;49.864;8.656;2022-07-04T05:33:27;22.30;99.90
5494;DHT22;2769;49.864;8.656;2022-07-04T05:36:14;22.40;99.90
5494;DHT22;2769;49.864;8.656;2022-07-04T05:39:00;22.50;99.90
5494;DHT22;2769;49.864;8.656;2022-07-04T05:41:47;22.50;99.90
5494;DHT22;2769;49.864;8.656;2022-07-04T05:44:34;22.50;99.90
5494;DHT22;2769;49.864;8.656;2022-07-04T05:47:21;22.50;99.90
5494;DHT22;2769;49.864;8.656;2022-07-04T05:50:11;22.70;99.90
5494;DHT22;2769;49.864;8.656;2022-07-04T05:52:57;22.50;99.90
5494;DHT22;2769;49.864;8.656;2022-07-04T05:55:44;22.40;99.90
5494;DHT22;2769;49.864;8.656;2022-07-04T05:58:30;22.30;99.90
5494;DHT22;2769;49.864;8.656;2022-07-04T06:01:17;22.50;99.90
5494;DHT22;2769;49.864;8.656;2022-07-04T06:04:04;22.50;99.90
5494;DHT22;2769;49.864;8.656;2022-07-04T06:06:52;22.60;99.90
5494;DHT22;2769;49.864;8.656;2022-07-04T06:09:39;22.70;99.90
5494;DHT22;2769;49.864;8.656;2022-07-04T06:12:25;22.80;99.90
5494;DHT22;2769;49.864;8.656;2022-07-04T06:15:12;22.70;99.90
5494;DHT22;2769;49.864;8.656;2022-07-04T06:18:00;22.60;99.90
5494;DHT22;2769;49.864;8.656;2022-07-04T06:20:47;22.80;99.90
5494;DHT22;2769;49.864;8.656;2022-07-04T06:23:35;22.80;99.90
5494;DHT22;2769;49.864;8.656;2022-07-04T06:26:22;22.80;99.90
5494;DHT22;2769;49.864;8.656;2022-07-04T06:29:08;23.00;99.90
5494;DHT22;2769;49.864;8.656;2022-07-04T06:31:54;23.20;99.90
5494;DHT22;2769;49.864;8.656;2022-07-04T06:34:41;23.20;99.90
5494;DHT22;2769;49.864;8.656;2022-07-04T06:37:45;23.40;99.90
5494;DHT22;2769;49.864;8.656;2022-07-04T06:40:35;23.30;99.90
5494;DHT22;2769;49.864;8.656;2022-07-04T06:43:22;23.40;99.90
5494;DHT22;2769;49.864;8.656;2022-07-04T06:46:11;23.50;99.90
5494;DHT22;2769;49.864;8.656;2022-07-04T06:48:58;23.40;99.90
5494;DHT22;2769;49.864;8.656;2022-07-04T06:51:44;23.50;99.90
5494;DHT22;2769;49.864;8.656;2022-07-04T06:54:31;23.70;99.90
5494;DHT22;2769;49.864;8.656;2022-07-04T06:57:19;23.80;99.90
5494;DHT22;2769;49.864;8.656;2022-07-04T07:00:16;23.90;99.90
5494;DHT22;2769;49.864;8.656;2022-07-04T07:03:03;23.90;99.90
5494;DHT22;2769;49.864;8.656;2022-07-04T07:05:50;24.10;99.90
5494;DHT22;2769;49.864;8.656;2022-07-04T07:08:45;24.40;99.50
5494;DHT22;2769;49.864;8.656;2022-07-04T07:11:32;24.60;98.90
5494;DHT22;2769;49.864;8.656;2022-07-04T07:14:20;24.50;98.70
5494;DHT22;2769;49.864;8.656;2022-07-04T07:17:06;24.70;97.90
5494;DHT22;2769;49.864;8.656;2022-07-04T07:19:53;24.90;96.70
5494;DHT22;2769;49.864;8.656;2022-07-04T07:22:40;24.90;96.80
5494;DHT22;2769;49.864;8.656;2022-07-04T07:25:27;25.10;96.40
5494;DHT22;2769;49.864;8.656;2022-07-04T07:28:14;25.20;96.30
5494;DHT22;2769;49.864;8.656;2022-07-04T07:31:02;25.40;95.30
5494;DHT22;2769;49.864;8.656;2022-07-04T07:33:49;25.40;94.60
5494;DHT22;2769;49.864;8.656;2022-07-04T07:36:35;25.50;95.00
5494;DHT22;2769;49.864;8.656;2022-07-04T07:39:22;25.70;94.10
5494;DHT22;2769;49.864;8.656;2022-07-04T07:42:08;26.10;93.30
5494;DHT22;2769;49.864;8.656;2022-07-04T07:44:55;26.10;92.70
5494;DHT22;2769;49.864;8.656;2022-07-04T07:47:44;25.70;92.80
5494;DHT22;2769;49.864;8.656;2022-07-04T07:50:31;26.00;92.20
5494;DHT22;2769;49.864;8.656;2022-07-04T07:53:18;26.00;92.50
5494;DHT22;2769;49.864;8.656;2022-07-04T07:56:04;26.30;92.00
5494;DHT22;2769;49.864;8.656;2022-07-04T07:58:51;26.50;91.80
5494;DHT22;2769;49.864;8.656;2022-07-04T08:01:38;26.60;91.50
5494;DHT22;2769;49.864;8.656;2022-07-04T08:04:25;26.60;91.40
5494;DHT22;2769;49.864;8.656;2022-07-04T08:07:20;26.90;91.10
5494;DHT22;2769;49.864;8.656;2022-07-04T08:10:08;26.90;90.00
5494;DHT22;2769;49.864;8.656;2022-07-04T08:12:55;27.00;89.60
5494;DHT22;2769;49.864;8.656;2022-07-04T08:15:43;27.20;88.20
5494;DHT22;2769;49.864;8.656;2022-07-04T08:18:30;27.30;87.30
5494;DHT22;2769;49.864;8.656;2022-07-04T08:21:18;27.50;86.40
5494;DHT22;2769;49.864;8.656;2022-07-04T08:24:05;27.60;87.10
5494;DHT22;2769;49.864;8.656;2022-07-04T08:27:04;27.70;85.30
5494;DHT22;2769;49.864;8.656;2022-07-04T08:29:50;27.70;85.90
5494;DHT22;2769;49.864;8.656;2022-07-04T08:32:37;28.20;84.30
5494;DHT22;2769;49.864;8.656;2022-07-04T08:35:24;28.60;83.00
5494;DHT22;2769;49.864;8.656;2022-07-04T08:38:12;29.00;80.90
5494;DHT22;2769;49.864;8.656;2022-07-04T08:41:01;29.30;80.10
5494;DHT22;2769;49.864;8.656;2022-07-04T08:43:48;28.70;81.10
5494;DHT22;2769;49.864;8.656;2022-07-04T08:46:36;28.60;80.20
5494;DHT22;2769;49.864;8.656;2022-07-04T08:49:29;28.90;79.20
5494;DHT22;2769;49.864;8.656;2022-07-04T08:52:25;29.10;79.30
5494;DHT22;2769;49.864;8.656;2022-07-04T08:55:15;29.80;77.90
5494;DHT22;2769;49.864;8.656;2022-07-04T08:58:21;29.90;75.00
5494;DHT22;2769;49.864;8.656;2022-07-04T09:01:16;29.30;76.00
5494;DHT22;2769;49.864;8.656;2022-07-04T09:04:04;29.70;77.10
5494;DHT22;2769;49.864;8.656;2022-07-04T09:06:51;29.60;75.50
5494;DHT22;2769;49.864;8.656;2022-07-04T09:09:40;29.90;74.80
5494;DHT22;2769;49.864;8.656;2022-07-04T09:12:34;29.90;73.30
5494;DHT22;2769;49.864;8.656;2022-07-04T09:15:41;29.80;75.10
5494;DHT22;2769;49.864;8.656;2022-07-04T09:18:37;29.70;74.40
5494;DHT22;2769;49.864;8.656;2022-07-04T09:21:42;29.00;74.50
5494;DHT22;2769;49.864;8.656;2022-07-04T09:24:44;28.40;77.30
5494;DHT22;2769;49.864;8.656;2022-07-04T09:27:32;28.10;77.20
5494;DHT22;2769;49.864;8.656;2022-07-04T09:30:22;28.80;77.90
5494;DHT22;2769;49.864;8.656;2022-07-04T09:33:09;29.50;75.30
5494;DHT22;2769;49.864;8.656;2022-07-04T09:35:58;29.30;75.40
5494;DHT22;2769;49.864;8.656;2022-07-04T09:39:08;29.70;73.80
5494;DHT22;2769;49.864;8.656;2022-07-04T09:41:59;30.40;72.50
5494;DHT22;2769;49.864;8.656;2022-07-04T09:44:47;30.50;70.30
5494;DHT22;2769;49.864;8.656;2022-07-04T09:47:37;30.60;69.20
5494;DHT22;2769;49.864;8.656;2022-07-04T09:50:25;31.80;67.80
5494;DHT22;2769;49.864;8.656;2022-07-04T09:53:12;31.80;65.70
5494;DHT22;2769;49.864;8.656;2022-07-04T09:55:59;31.90;66.60
5494;DHT22;2769;49.864;8.656;2022-07-04T09:58:56;32.10;67.20
5494;DHT22;2769;49.864;8.656;2022-07-04T10:01:43;33.00;63.10
5494;DHT22;2769;49.864;8.656;2022-07-04T10:04:43;33.00;61.50
5494;DHT22;2769;49.864;8.656;2022-07-04T10:07:32;33.30;61.10
5494;DHT22;2769;49.864;8.656;2022-07-04T10:10:27;33.20;60.40
5494;DHT22;2769;49.864;8.656;2022-07-04T10:13:14;33.60;59.20
5494;DHT22;2769;49.864;8.656;2022-07-04T10:16:00;33.60;58.50
5494;DHT22;2769;49.864;8.656;2022-07-04T10:18:47;33.50;59.20
5494;DHT22;2769;49.864;8.656;2022-07-04T10:21:36;33.60;59.10
5494;DHT22;2769;49.864;8.656;2022-07-04T10:24:23;32.50;57.40
5494;DHT22;2769;49.864;8.656;2022-07-04T10:27:11;33.10;60.20
5494;DHT22;2769;49.864;8.656;2022-07-04T10:30:02;33.30;58.80
5494;DHT22;2769;49.864;8.656;2022-07-04T10:32:50;33.50;58.70
5494;DHT22;2769;49.864;8.656;2022-07-04T10:35:49;33.10;59.00
5494;DHT22;2769;49.864;8.656;2022-07-04T10:38:46;32.40;59.20
5494;DHT22;2769;49.864;8.656;2022-07-04T10:41:33;32.90;60.30
5494;DHT22;2769;49.864;8.656;2022-07-04T10:44:22;33.00;58.80
5494;DHT22;2769;49.864;8.656;2022-07-04T10:47:21;32.40;60.50
5494;DHT22;2769;49.864;8.656;2022-07-04T10:50:27;33.50;58.50
5494;DHT22;2769;49.864;8.656;2022-07-04T10:53:13;33.70;56.10
5494;DHT22;2769;49.864;8.656;2022-07-04T10:56:34;33.40;56.20
5494;DHT22;2769;49.864;8.656;2022-07-04T10:59:25;33.80;58.40
5494;DHT22;2769;49.864;8.656;2022-07-04T11:02:24;33.80;56.80
5494;DHT22;2769;49.864;8.656;2022-07-04T11:05:13;34.00;55.60
5494;DHT22;2769;49.864;8.656;2022-07-04T11:08:01;34.10;55.40
5494;DHT22;2769;49.864;8.656;2022-07-04T11:10:51;34.20;54.40
5494;DHT22;2769;49.864;8.656;2022-07-04T11:17:13;34.30;52.60
5494;DHT22;2769;49.864;8.656;2022-07-04T11:20:03;34.10;53.40
5494;DHT22;2769;49.864;8.656;2022-07-04T11:22:51;34.50;52.80
5494;DHT22;2769;49.864;8.656;2022-07-04T11:25:40;34.50;51.10
5494;DHT22;2769;49.864;8.656;2022-07-04T11:28:28;34.50;51.90
5494;DHT22;2769;49.864;8.656;2022-07-04T11:31:35;34.30;51.20
5494;DHT22;2769;49.864;8.656;2022-07-04T11:34:24;34.10;52.40
5494;DHT22;2769;49.864;8.656;2022-07-04T11:37:11;34.50;52.60
5494;DHT22;2769;49.864;8.656;2022-07-04T11:39:57;34.90;51.70
5494;DHT22;2769;49.864;8.656;2022-07-04T11:43:05;35.00;51.60
5494;DHT22;2769;49.864;8.656;2022-07-04T11:46:10;35.30;50.90
5494;DHT22;2769;49.864;8.656;2022-07-04T11:49:07;35.60;50.20
5494;DHT22;2769;49.864;8.656;2022-07-04T11:51:56;35.40;49.70
5494;DHT22;2769;49.864;8.656;2022-07-04T11:54:44;35.10;50.20
5494;DHT22;2769;49.864;8.656;2022-07-04T11:57:40;35.20;49.10
5494;DHT22;2769;49.864;8.656;2022-07-04T12:00:28;36.10;49.50
5494;DHT22;2769;49.864;8.656;2022-07-04T12:03:17;37.50;47.40
5494;DHT22;2769;49.864;8.656;2022-07-04T12:06:05;36.70;46.60
5494;DHT22;2769;49.864;8.656;2022-07-04T12:09:01;36.70;47.50
5494;DHT22;2769;49.864;8.656;2022-07-04T12:11:55;36.60;47.20
5494;DHT22;2769;49.864;8.656;2022-07-04T12:14:57;37.00;47.00
5494;DHT22;2769;49.864;8.656;2022-07-04T12:17:43;38.10;46.80
5494;DHT22;2769;49.864;8.656;2022-07-04T12:20:30;38.90;45.60
5494;DHT22;2769;49.864;8.656;2022-07-04T12:23:18;39.10;44.50
5494;DHT22;2769;49.864;8.656;2022-07-04T12:26:06;37.60;44.90
5494;DHT22;2769;49.864;8.656;2022-07-04T12:28:54;38.00;45.40
5494;DHT22;2769;49.864;8.656;2022-07-04T12:31:43;37.80;44.90
5494;DHT22;2769;49.864;8.656;2022-07-04T12:34:31;37.90;44.50
5494;DHT22;2769;49.864;8.656;2022-07-04T12:37:18;38.70;44.30
5494;DHT22;2769;49.864;8.656;2022-07-04T12:40:08;37.50;45.10
5494;DHT22;2769;49.864;8.656;2022-07-04T12:42:56;38.30;44.70
5494;DHT22;2769;49.864;8.656;2022-07-04T12:45:44;37.90;43.70
5494;DHT22;2769;49.864;8.656;2022-07-04T12:48:31;39.70;43.70
5494;DHT22;2769;49.864;8.656;2022-07-04T12:51:19;39.30;43.50
5494;DHT22;2769;49.864;8.656;2022-07-04T12:54:08;39.40;40.80
5494;DHT22;2769;49.864;8.656;2022-07-04T12:57:06;39.40;41.70
5494;DHT22;2769;49.864;8.656;2022-07-04T12:59:55;38.40;42.00
5494;DHT22;2769;49.864;8.656;2022-07-04T13:03:01;38.20;42.50
5494;DHT22;2769;49.864;8.656;2022-07-04T13:05:48;38.20;42.80
5494;DHT22;2769;49.864;8.656;2022-07-04T13:08:35;38.10;42.30
5494;DHT22;2769;49.864;8.656;2022-07-04T13:11:22;38.70;41.80
5494;DHT22;2769;49.864;8.656;2022-07-04T13:14:26;40.20;40.40
5494;DHT22;2769;49.864;8.656;2022-07-04T13:17:14;41.70;38.50
5494;DHT22;2769;49.864;8.656;2022-07-04T13:20:01;41.40;39.60
5494;DHT22;2769;49.864;8.656;2022-07-04T13:22:48;41.70;38.10
5494;DHT22;2769;49.864;8.656;2022-07-04T13:25:35;41.10;37.50
5494;DHT22;2769;49.864;8.656;2022-07-04T13:28:21;40.50;37.70
5494;DHT22;2769;49.864;8.656;2022-07-04T13:31:08;39.90;36.00
5494;DHT22;2769;49.864;8.656;2022-07-04T13:33:56;39.90;37.20
5494;DHT22;2769;49.864;8.656;2022-07-04T13:36:43;38.60;38.10
5494;DHT22;2769;49.864;8.656;2022-07-04T13:39:30;37.70;37.90
5494;DHT22;2769;49.864;8.656;2022-07-04T13:42:35;36.60;39.10
5494;DHT22;2769;49.864;8.656;2022-07-04T13:45:41;35.70;40.70
5494;DHT22;2769;49.864;8.656;2022-07-04T13:48:29;35.00;41.00
5494;DHT22;2769;49.864;8.656;2022-07-04T13:51:17;34.20;42.20
5494;DHT22;2769;49.864;8.656;2022-07-04T13:54:04;33.70;42.80
5494;DHT22;2769;49.864;8.656;2022-07-04T13:56:51;32.90;43.90
5494;DHT22;2769;49.864;8.656;2022-07-04T13:59:38;32.40;43.70
5494;DHT22;2769;49.864;8.656;2022-07-04T14:02:24;32.70;43.40
5494;DHT22;2769;49.864;8.656;2022-07-04T14:05:11;32.10;45.20
5494;DHT22;2769;49.864;8.656;2022-07-04T14:07:59;32.00;43.40
5494;DHT22;2769;49.864;8.656;2022-07-04T14:10:46;32.10;44.10
5494;DHT22;2769;49.864;8.656;2022-07-04T14:13:32;31.90;44.40
5494;DHT22;2769;49.864;8.656;2022-07-04T14:16:19;31.70;44.70
5494;DHT22;2769;49.864;8.656;2022-07-04T14:19:05;31.80;44.80
5494;DHT22;2769;49.864;8.656;2022-07-04T14:21:55;32.00;44.70
5494;DHT22;2769;49.864;8.656;2022-07-04T14:24:43;32.10;43.90
5494;DHT22;2769;49.864;8.656;2022-07-04T14:27:30;31.60;45.20
5494;DHT22;2769;49.864;8.656;2022-07-04T14:30:16;31.20;45.00
5494;DHT22;2769;49.864;8.656;2022-07-04T14:33:03;31.40;46.00
5494;DHT22;2769;49.864;8.656;2022-07-04T14:35:49;30.50;46.70
5494;DHT22;2769;49.864;8.656;2022-07-04T14:38:36;29.70;48.20
5494;DHT22;2769;49.864;8.656;2022-07-04T14:41:24;29.70;48.30
5494;DHT22;2769;49.864;8.656;2022-07-04T14:44:11;30.40;48.10
5494;DHT22;2769;49.864;8.656;2022-07-04T14:46:57;30.20;47.70
5494;DHT22;2769;49.864;8.656;2022-07-04T14:49:44;30.10;47.90
5494;DHT22;2769;49.864;8.656;2022-07-04T14:52:31;30.10;48.20
5494;DHT22;2769;49.864;8.656;2022-07-04T14:55:17;30.00;47.70
5494;DHT22;2769;49.864;8.656;2022-07-04T14:58:05;30.00;49.50
5494;DHT22;2769;49.864;8.656;2022-07-04T15:00:51;30.00;48.70
5494;DHT22;2769;49.864;8.656;2022-07-04T15:03:38;30.10;48.30
5494;DHT22;2769;49.864;8.656;2022-07-04T15:06:25;29.80;48.40
5494;DHT22;2769;49.864;8.656;2022-07-04T15:09:11;29.80;48.50
5494;DHT22;2769;49.864;8.656;2022-07-04T15:11:58;30.00;48.30
5494;DHT22;2769;49.864;8.656;2022-07-04T15:14:45;29.90;48.20
5494;DHT22;2769;49.864;8.656;2022-07-04T15:17:32;30.00;48.90
5494;DHT22;2769;49.864;8.656;2022-07-04T15:20:20;30.10;49.40
5494;DHT22;2769;49.864;8.656;2022-07-04T15:23:25;29.90;48.30
5494;DHT22;2769;49.864;8.656;2022-07-04T15:26:29;29.20;49.00
5494;DHT22;2769;49.864;8.656;2022-07-04T15:29:16;29.50;48.50
5494;DHT22;2769;49.864;8.656;2022-07-04T15:32:05;29.70;48.90
5494;DHT22;2769;49.864;8.656;2022-07-04T15:34:54;30.00;48.70
5494;DHT22;2769;49.864;8.656;2022-07-04T15:37:59;30.20;48.30
5494;DHT22;2769;49.864;8.656;2022-07-04T15:40:45;30.30;48.50
5494;DHT22;2769;49.864;8.656;2022-07-04T15:43:34;30.70;48.40
5494;DHT22;2769;49.864;8.656;2022-07-04T15:46:21;30.30;49.00
5494;DHT22;2769;49.864;8.656;2022-07-04T15:49:10;30.00;49.90
5494;DHT22;2769;49.864;8.656;2022-07-04T15:52:04;30.00;49.00
5494;DHT22;2769;49.864;8.656;2022-07-04T15:54:51;30.00;49.40
5494;DHT22;2769;49.864;8.656;2022-07-04T15:57:37;30.20;48.70
5494;DHT22;2769;49.864;8.656;2022-07-04T16:00:24;30.30;48.30
5494;DHT22;2769;49.864;8.656;2022-07-04T16:03:11;30.10;48.20
5494;DHT22;2769;49.864;8.656;2022-07-04T16:06:00;30.40;49.10
5494;DHT22;2769;49.864;8.656;2022-07-04T16:08:47;30.30;48.10
5494;DHT22;2769;49.864;8.656;2022-07-04T16:11:34;30.40;48.80
5494;DHT22;2769;49.864;8.656;2022-07-04T16:14:21;30.60;48.50
5494;DHT22;2769;49.864;8.656;2022-07-04T16:17:07;30.60;47.20
5494;DHT22;2769;49.864;8.656;2022-07-04T16:19:54;30.50;48.50
5494;DHT22;2769;49.864;8.656;2022-07-04T16:22:42;30.90;46.70
5494;DHT22;2769;49.864;8.656;2022-07-04T16:25:29;30.60;46.70
5494;DHT22;2769;49.864;8.656;2022-07-04T16:28:15;30.50;47.20
5494;DHT22;2769;49.864;8.656;2022-07-04T16:31:02;30.00;48.00
5494;DHT22;2769;49.864;8.656;2022-07-04T16:33:55;30.30;48.80
5494;DHT22;2769;49.864;8.656;2022-07-04T16:36:42;30.30;48.10
5494;DHT22;2769;49.864;8.656;2022-07-04T16:39:30;30.20;47.80
5494;DHT22;2769;49.864;8.656;2022-07-04T16:42:17;29.80;48.80
5494;DHT22;2769;49.864;8.656;2022-07-04T16:45:05;30.00;49.70
5494;DHT22;2769;49.864;8.656;2022-07-04T16:47:52;30.10;49.80
5494;DHT22;2769;49.864;8.656;2022-07-04T16:50:39;30.20;49.10
5494;DHT22;2769;49.864;8.656;2022-07-04T16:53:26;30.30;49.40
5494;DHT22;2769;49.864;8.656;2022-07-04T16:56:14;30.40;48.90
5494;DHT22;2769;49.864;8.656;2022-07-04T16:59:00;30.10;49.10
5494;DHT22;2769;49.864;8.656;2022-07-04T17:01:47;29.90;49.10
5494;DHT22;2769;49.864;8.656;2022-07-04T17:04:34;29.60;48.70
5494;DHT22;2769;49.864;8.656;2022-07-04T17:07:20;29.30;48.70
5494;DHT22;2769;49.864;8.656;2022-07-04T17:10:10;29.30;49.10
5494;DHT22;2769;49.864;8.656;2022-07-04T17:12:58;29.40;49.70
5494;DHT22;2769;49.864;8.656;2022-07-04T17:15:45;29.20;50.20
5494;DHT22;2769;49.864;8.656;2022-07-04T17:18:32;29.40;50.10
5494;DHT22;2769;49.864;8.656;2022-07-04T17:21:18;29.40;50.30
5494;DHT22;2769;49.864;8.656;2022-07-04T17:24:05;29.20;50.00
5494;DHT22;2769;49.864;8.656;2022-07-04T17:26:52;29.60;50.10
5494;DHT22;2769;49.864;8.656;2022-07-04T17:29:55;29.60;50.10
5494;DHT22;2769;49.864;8.656;2022-07-04T17:32:42;29.70;49.10
5494;DHT22;2769;49.864;8.656;2022-07-04T17:35:29;29.40;49.70
5494;DHT22;2769;49.864;8.656;2022-07-04T17:38:15;29.30;50.20
5494;DHT22;2769;49.864;8.656;2022-07-04T17:41:02;29.00;50.00
5494;DHT22;2769;49.864;8.656;2022-07-04T17:44:11;29.20;51.30
5494;DHT22;2769;49.864;8.656;2022-07-04T17:46:59;29.00;52.00
5494;DHT22;2769;49.864;8.656;2022-07-04T17:52:34;28.50;52.40
5494;DHT22;2769;49.864;8.656;2022-07-04T17:55:21;28.50;52.50
5494;DHT22;2769;49.864;8.656;2022-07-04T17:58:08;28.70;52.20
5494;DHT22;2769;49.864;8.656;2022-07-04T18:00:54;28.80;52.30
5494;DHT22;2769;49.864;8.656;2022-07-04T18:03:43;28.80;52.20
5494;DHT22;2769;49.864;8.656;2022-07-04T18:06:29;28.90;52.30
5494;DHT22;2769;49.864;8.656;2022-07-04T18:09:15;28.80;51.90
5494;DHT22;2769;49.864;8.656;2022-07-04T18:12:03;28.90;51.70
5494;DHT22;2769;49.864;8.656;2022-07-04T18:14:50;28.70;52.10
5494;DHT22;2769;49.864;8.656;2022-07-04T18:17:36;28.60;52.20
5494;DHT22;2769;49.864;8.656;2022-07-04T18:20:24;28.40;52.50
5494;DHT22;2769;49.864;8.656;2022-07-04T18:23:11;28.50;52.30
5494;DHT22;2769;49.864;8.656;2022-07-04T18:25:58;28.30;52.50
5494;DHT22;2769;49.864;8.656;2022-07-04T18:28:44;28.30;52.60